createdAt,value
2023-04-13T00:01:49.952Z,29.60
2023-04-13T00:04:19.603Z,29.60
2023-04-13T00:06:50.814Z,29.60
2023-04-13T00:09:20.614Z,29.60
2023-04-13T00:11:50.741Z,29.60
2023-04-13T00:14:20.501Z,29.70
2023-04-13T00:16:50.311Z,29.70
2023-04-13T00:19:20.634Z,29.80
2023-04-13T00:21:50.312Z,29.80
2023-04-13T00:24:21.460Z,29.80
2023-04-13T00:26:51.079Z,29.90
2023-04-13T00:29:20.836Z,29.90
2023-04-13T00:31:50.412Z,30.00
2023-04-13T00:34:20.060Z,30.00
2023-04-13T00:36:51.684Z,30.00
2023-04-13T00:39:24.703Z,30.10
2023-04-13T00:41:54.458Z,30.10
2023-04-13T00:44:24.037Z,30.10
2023-04-13T00:46:56.082Z,30.20
2023-04-13T00:49:25.741Z,30.10
2023-04-13T00:51:55.456Z,30.20
2023-04-13T00:54:25.475Z,30.30
2023-04-13T00:56:56.050Z,30.30
2023-04-13T00:59:28.167Z,30.40
2023-04-13T01:02:03.745Z,30.50
2023-04-13T01:04:34.053Z,30.60
2023-04-13T01:07:29.388Z,30.70
2023-04-13T01:10:21.699Z,30.70
2023-04-13T01:13:18.350Z,30.80
2023-04-13T01:16:12.296Z,30.80
2023-04-13T01:18:45.179Z,30.90
2023-04-13T01:21:17.047Z,31.00
2023-04-13T01:24:23.404Z,31.10
2023-04-13T01:27:02.873Z,31.10
2023-04-13T01:29:33.627Z,31.20
2023-04-13T01:32:07.692Z,31.20
2023-04-13T01:34:37.687Z,31.20
2023-04-13T01:37:08.153Z,31.30
2023-04-13T01:39:40.267Z,31.40
2023-04-13T01:42:10.020Z,31.50
2023-04-13T01:44:39.786Z,31.50
2023-04-13T01:47:20.696Z,31.50
2023-04-13T01:50:05.624Z,31.60
2023-04-13T01:52:36.198Z,31.60
2023-04-13T01:55:07.942Z,31.70
2023-04-13T01:57:38.774Z,31.80
2023-04-13T02:00:13.775Z,31.80
2023-04-13T02:02:43.449Z,31.90
2023-04-13T02:05:13.433Z,31.90
2023-04-13T02:07:46.368Z,32.00
2023-04-13T02:10:17.935Z,32.10
2023-04-13T02:12:47.530Z,32.20
2023-04-13T02:15:17.679Z,32.30
2023-04-13T02:17:47.290Z,32.40
2023-04-13T02:20:17.103Z,32.50
2023-04-13T02:22:47.420Z,32.60
2023-04-13T02:25:17.500Z,32.60
2023-04-13T02:27:47.255Z,32.60
2023-04-13T02:30:19.018Z,32.80
2023-04-13T02:32:51.618Z,32.80
2023-04-13T02:35:22.453Z,32.80
2023-04-13T02:37:52.184Z,32.80
2023-04-13T02:40:22.499Z,33.00
2023-04-13T02:42:52.245Z,33.00
2023-04-13T02:45:21.785Z,33.00
2023-04-13T02:47:53.555Z,33.10
2023-04-13T02:50:23.180Z,33.10
2023-04-13T02:52:52.978Z,33.10
2023-04-13T02:55:22.931Z,33.20
2023-04-13T02:57:53.165Z,33.20
2023-04-13T03:00:23.424Z,33.30
2023-04-13T03:02:53.356Z,33.40
2023-04-13T03:05:23.041Z,33.50
2023-04-13T03:07:52.830Z,33.60
2023-04-13T03:10:23.488Z,33.70
2023-04-13T03:12:53.249Z,33.80
2023-04-13T03:15:23.034Z,33.90
2023-04-13T03:17:52.669Z,34.00
2023-04-13T03:20:25.209Z,34.00
2023-04-13T03:22:55.411Z,34.10
2023-04-13T03:25:25.091Z,34.20
2023-04-13T03:27:54.760Z,34.30
2023-04-13T03:30:24.621Z,34.30
2023-04-13T03:32:54.279Z,34.40
2023-04-13T03:35:23.920Z,34.50
2023-04-13T03:37:53.799Z,34.60
2023-04-13T03:40:24.348Z,34.70
2023-04-13T03:42:53.885Z,34.80
2023-04-13T03:45:23.524Z,34.70
2023-04-13T03:47:53.139Z,34.70
2023-04-13T03:50:22.805Z,34.70
2023-04-13T03:52:52.826Z,34.70
2023-04-13T03:55:22.629Z,34.60
2023-04-13T03:57:52.555Z,34.70
2023-04-13T04:00:22.221Z,34.70
2023-04-13T04:02:51.960Z,34.80
2023-04-13T04:05:21.857Z,34.80
2023-04-13T04:07:51.474Z,34.80
2023-04-13T04:10:21.445Z,34.80
2023-04-13T04:12:51.066Z,34.80
2023-04-13T04:15:20.674Z,34.90
2023-04-13T04:17:50.330Z,34.90
2023-04-13T04:20:20.173Z,35.00
2023-04-13T04:22:49.943Z,35.10
2023-04-13T04:25:23.680Z,35.30
2023-04-13T04:27:59.884Z,35.40
2023-04-13T04:30:31.224Z,35.60
2023-04-13T04:33:01.508Z,35.70
2023-04-13T04:35:37.506Z,35.70
2023-04-13T04:38:08.108Z,35.80
2023-04-13T04:40:38.335Z,35.90
2023-04-13T04:43:07.994Z,36.00
2023-04-13T04:45:40.089Z,36.00
2023-04-13T04:48:10.027Z,36.00
2023-04-13T04:50:39.916Z,35.90
2023-04-13T04:53:09.874Z,35.90
2023-04-13T04:55:39.555Z,35.90
2023-04-13T04:58:09.161Z,36.00
2023-04-13T05:00:38.996Z,36.00
2023-04-13T05:03:09.802Z,36.10
2023-04-13T05:05:39.750Z,36.10
2023-04-13T05:08:09.858Z,36.20
2023-04-13T05:10:44.868Z,36.20
2023-04-13T05:13:14.800Z,36.30
2023-04-13T05:15:44.401Z,36.30
2023-04-13T05:18:17.108Z,36.30
2023-04-13T05:20:46.949Z,36.20
2023-04-13T05:23:16.481Z,36.30
2023-04-13T05:25:46.564Z,36.30
2023-04-13T05:28:16.050Z,36.40
2023-04-13T05:30:46.425Z,36.50
2023-04-13T05:33:16.102Z,36.50
2023-04-13T05:35:45.827Z,36.50
2023-04-13T05:38:15.594Z,36.50
2023-04-13T05:40:46.801Z,36.50
2023-04-13T05:43:17.056Z,36.50
2023-04-13T05:45:46.771Z,36.60
2023-04-13T05:48:16.478Z,36.60
2023-04-13T05:50:46.142Z,36.60
2023-04-13T05:53:17.352Z,36.60
2023-04-13T05:55:48.182Z,36.60
2023-04-13T05:58:20.550Z,36.70
2023-04-13T06:00:50.549Z,36.70
2023-04-13T06:03:22.417Z,36.90
2023-04-13T06:05:54.193Z,37.00
2023-04-13T06:08:24.155Z,37.20
2023-04-13T06:10:53.960Z,37.30
2023-04-13T06:13:24.126Z,37.40
2023-04-13T06:15:54.541Z,37.50
2023-04-13T06:18:24.185Z,37.60
2023-04-13T06:20:53.800Z,37.70
2023-04-13T06:23:23.831Z,37.70
2023-04-13T06:25:53.685Z,37.80
2023-04-13T06:28:23.878Z,37.70
2023-04-13T06:30:53.823Z,37.70
2023-04-13T06:33:24.819Z,37.70
2023-04-13T06:35:54.685Z,37.70
2023-04-13T06:38:24.839Z,37.70
2023-04-13T06:40:55.180Z,37.70
2023-04-13T06:43:29.444Z,37.70
2023-04-13T06:46:03.918Z,37.70
2023-04-13T06:48:33.625Z,37.60
2023-04-13T06:51:03.518Z,37.60
2023-04-13T06:53:33.591Z,37.60
2023-04-13T06:56:03.277Z,37.70
2023-04-13T06:58:33.084Z,37.70
2023-04-13T07:01:02.987Z,37.70
2023-04-13T07:03:33.846Z,37.70
2023-04-13T07:06:03.659Z,37.70
2023-04-13T07:08:33.927Z,37.80
2023-04-13T07:11:04.340Z,37.80
2023-04-13T07:13:34.046Z,37.90
2023-04-13T07:16:10.964Z,37.90
2023-04-13T07:18:40.942Z,37.90
2023-04-13T07:21:10.675Z,37.80
2023-04-13T07:23:40.395Z,37.90
2023-04-13T07:26:16.250Z,37.90
2023-04-13T07:28:45.886Z,37.90
2023-04-13T07:31:15.570Z,37.90
2023-04-13T07:33:45.212Z,38.00
2023-04-13T07:36:14.927Z,37.90
2023-04-13T07:38:44.642Z,37.90
2023-04-13T07:41:14.865Z,38.00
2023-04-13T07:43:44.508Z,38.00
2023-04-13T07:46:14.331Z,38.00
2023-04-13T07:48:44.872Z,38.10
2023-04-13T07:51:21.354Z,38.10
2023-04-13T07:53:51.383Z,38.10
2023-04-13T07:56:21.322Z,38.10
2023-04-13T07:58:52.167Z,38.10
2023-04-13T08:01:23.065Z,38.10
2023-04-13T08:03:53.083Z,38.10
2023-04-13T08:06:22.801Z,38.20
2023-04-13T08:08:52.421Z,38.20
2023-04-13T08:11:22.045Z,38.20
2023-04-13T08:13:51.754Z,38.20
2023-04-13T08:16:21.685Z,38.20
2023-04-13T08:18:51.361Z,38.20
2023-04-13T08:21:21.124Z,38.20
2023-04-13T08:23:50.697Z,38.30
2023-04-13T08:26:21.984Z,38.30
2023-04-13T08:28:52.595Z,38.30
2023-04-13T08:31:22.288Z,38.30
2023-04-13T08:33:52.164Z,38.30
2023-04-13T08:36:21.768Z,38.30
2023-04-13T08:38:51.505Z,38.30
2023-04-13T08:41:23.666Z,38.40
2023-04-13T08:43:53.860Z,38.40
2023-04-13T08:46:24.668Z,38.40
2023-04-13T08:48:56.739Z,38.40
2023-04-13T08:51:28.198Z,38.30
2023-04-13T08:53:58.541Z,38.30
2023-04-13T08:56:38.129Z,38.30
2023-04-13T08:59:16.895Z,38.20
2023-04-13T09:01:49.663Z,38.10
2023-04-13T09:04:22.895Z,38.10
2023-04-13T09:06:53.409Z,38.10
2023-04-13T09:09:23.231Z,38.10
2023-04-13T09:11:53.061Z,38.00
2023-04-13T09:14:23.521Z,37.90
2023-04-13T09:16:53.575Z,37.90
2023-04-13T09:19:43.007Z,37.90
2023-04-13T09:22:16.857Z,37.70
2023-04-13T09:24:46.784Z,37.70
2023-04-13T09:27:26.065Z,37.70
2023-04-13T09:29:57.086Z,37.70
2023-04-13T09:32:28.520Z,37.70
2023-04-13T09:35:10.054Z,37.70
2023-04-13T09:37:44.270Z,37.70
2023-04-13T09:40:20.505Z,37.60
2023-04-13T09:43:11.234Z,37.60
2023-04-13T09:45:42.548Z,37.60
2023-04-13T09:48:23.081Z,37.60
2023-04-13T09:51:08.436Z,37.50
2023-04-13T09:53:47.490Z,37.50
2023-04-13T09:56:17.824Z,37.50
2023-04-13T09:58:49.168Z,37.50
2023-04-13T10:01:19.335Z,37.50
2023-04-13T10:03:49.117Z,37.40
2023-04-13T10:06:19.385Z,37.30
2023-04-13T10:08:49.010Z,37.10
2023-04-13T10:11:19.925Z,37.00
2023-04-13T10:14:01.508Z,36.90
2023-04-13T10:16:55.701Z,36.80
2023-04-13T10:19:31.611Z,36.60
2023-04-13T10:22:01.754Z,36.40
2023-04-13T10:24:31.570Z,36.20
2023-04-13T10:27:03.405Z,36.10
2023-04-13T10:29:34.537Z,36.00
2023-04-13T10:32:07.944Z,35.90
2023-04-13T10:34:41.235Z,35.80
2023-04-13T10:37:20.997Z,35.70
2023-04-13T10:39:50.888Z,35.60
2023-04-13T10:42:20.604Z,35.40
2023-04-13T10:44:53.373Z,35.20
2023-04-13T10:47:26.571Z,35.00
2023-04-13T10:49:57.536Z,34.80
2023-04-13T10:52:27.093Z,34.70
2023-04-13T10:54:57.029Z,34.60
2023-04-13T10:57:26.972Z,34.40
2023-04-13T10:59:59.941Z,34.20
2023-04-13T11:02:33.704Z,34.00
2023-04-13T11:05:03.850Z,33.70
2023-04-13T11:07:34.436Z,33.50
2023-04-13T11:10:04.408Z,33.30
2023-04-13T11:12:34.058Z,33.10
2023-04-13T11:15:03.787Z,33.00
2023-04-13T11:17:33.423Z,32.70
2023-04-13T11:20:03.920Z,32.50
2023-04-13T11:22:38.140Z,32.20
2023-04-13T11:25:10.665Z,32.10
2023-04-13T11:27:40.438Z,32.00
2023-04-13T11:30:12.706Z,31.90
2023-04-13T11:32:44.850Z,31.90
2023-04-13T11:35:16.542Z,31.80
2023-04-13T11:37:51.169Z,31.70
2023-04-13T11:40:26.393Z,31.70
2023-04-13T11:43:00.476Z,31.60
2023-04-13T11:45:31.847Z,31.60
2023-04-13T11:48:02.103Z,31.50
2023-04-13T11:50:32.087Z,31.50
2023-04-13T11:53:02.198Z,31.50
2023-04-13T11:55:39.438Z,31.60
2023-04-13T11:58:20.660Z,31.60
2023-04-13T12:00:50.977Z,31.60
2023-04-13T12:03:38.232Z,31.60
2023-04-13T12:06:12.191Z,31.70
2023-04-13T12:08:42.673Z,31.70
2023-04-13T12:14:05.974Z,31.90
2023-04-13T12:17:03.265Z,31.90
2023-04-13T12:19:30.058Z,31.90
2023-04-13T12:22:00.634Z,31.90
2023-04-13T12:24:39.511Z,31.90
2023-04-13T12:27:18.471Z,31.80
2023-04-13T12:29:50.632Z,31.70
2023-04-13T12:32:20.361Z,31.70
2023-04-13T12:34:50.620Z,31.60
2023-04-13T12:37:20.114Z,31.60
2023-04-13T12:39:49.835Z,31.60
2023-04-13T12:42:19.339Z,31.60
2023-04-13T12:44:48.949Z,31.70
2023-04-13T12:47:18.824Z,31.70
2023-04-13T12:49:48.686Z,31.70
2023-04-13T12:52:18.317Z,31.80
2023-04-13T12:54:48.067Z,31.80
2023-04-13T12:57:19.528Z,31.80
2023-04-13T12:59:49.130Z,31.90
2023-04-13T13:02:18.752Z,31.90
2023-04-13T13:04:48.443Z,31.90
2023-04-13T13:07:18.527Z,31.90
2023-04-13T13:09:48.192Z,31.80
2023-04-13T13:12:18.119Z,31.80
2023-04-13T13:14:47.985Z,31.70
2023-04-13T13:17:17.812Z,31.70
2023-04-13T13:19:47.517Z,31.70
2023-04-13T13:22:17.663Z,31.70
2023-04-13T13:24:47.424Z,31.70
2023-04-13T13:27:54.135Z,31.70
2023-04-13T13:30:09.185Z,31.60
2023-04-13T13:32:39.075Z,31.70
2023-04-13T13:35:10.786Z,31.60
2023-04-13T13:37:41.417Z,31.60
2023-04-13T13:40:15.052Z,31.70
2023-04-13T13:42:51.737Z,31.60
2023-04-13T13:45:23.167Z,31.60
2023-04-13T13:47:55.082Z,31.70
2023-04-13T13:50:24.851Z,31.70
2023-04-13T13:53:02.181Z,31.70
2023-04-13T13:55:33.967Z,31.70
2023-04-13T13:58:04.096Z,31.60
2023-04-13T14:00:34.111Z,31.60
2023-04-13T14:03:03.965Z,31.60
2023-04-13T14:05:33.876Z,31.50
2023-04-13T14:08:04.588Z,31.30
2023-04-13T14:10:34.373Z,31.30
2023-04-13T14:13:04.088Z,31.20
2023-04-13T14:15:33.820Z,31.10
2023-04-13T14:18:10.570Z,31.10
2023-04-13T14:20:41.728Z,31.10
2023-04-13T14:23:11.548Z,31.10
2023-04-13T14:25:42.770Z,31.10
2023-04-13T14:28:13.282Z,31.10
2023-04-13T14:30:43.751Z,31.10
2023-04-13T14:33:16.267Z,31.10
2023-04-13T14:35:46.199Z,31.10
2023-04-13T14:38:16.366Z,31.10
2023-04-13T14:40:46.205Z,31.10
2023-04-13T14:43:17.825Z,31.10
2023-04-13T14:45:47.835Z,31.10
2023-04-13T14:48:17.708Z,31.10
2023-04-13T14:50:47.768Z,31.10
2023-04-13T14:53:19.392Z,31.10
2023-04-13T14:55:49.260Z,31.10
2023-04-13T14:58:19.119Z,31.00
2023-04-13T15:00:49.237Z,31.00
2023-04-13T15:03:19.271Z,31.00
2023-04-13T15:05:50.216Z,30.90
2023-04-13T15:08:21.260Z,30.90
2023-04-13T15:10:51.267Z,30.90
2023-04-13T15:13:20.891Z,30.80
2023-04-13T15:15:51.720Z,30.80
2023-04-13T15:18:21.542Z,30.80
2023-04-13T15:20:51.593Z,30.80
2023-04-13T15:23:21.402Z,30.70
2023-04-13T15:25:51.167Z,30.80
2023-04-13T15:28:20.901Z,30.70
2023-04-13T15:30:50.721Z,30.80
2023-04-13T15:33:21.108Z,30.70
2023-04-13T15:35:50.849Z,30.80
2023-04-13T15:38:20.716Z,30.70
2023-04-13T15:40:50.557Z,30.70
2023-04-13T15:43:20.934Z,30.80
2023-04-13T15:45:50.812Z,30.80
2023-04-13T15:48:21.241Z,30.80
2023-04-13T15:50:50.913Z,30.80
2023-04-13T15:53:20.498Z,30.80
2023-04-13T15:55:50.226Z,30.90
2023-04-13T15:58:19.982Z,30.90
2023-04-13T16:00:59.029Z,30.90
2023-04-13T16:03:28.797Z,30.90
2023-04-13T16:05:59.141Z,30.90
2023-04-13T16:08:30.916Z,30.90
2023-04-13T16:11:02.221Z,30.80
2023-04-13T16:16:16.479Z,30.70
2023-04-13T16:18:46.456Z,30.70
2023-04-13T16:21:20.813Z,30.60
2023-04-13T16:23:50.688Z,30.60
2023-04-13T16:26:21.892Z,30.60
2023-04-13T16:28:52.996Z,30.60
2023-04-13T16:31:24.722Z,30.60
2023-04-13T16:33:55.915Z,30.60
2023-04-13T16:36:26.061Z,30.50
2023-04-13T16:39:06.598Z,30.50
2023-04-13T16:41:38.426Z,30.50
2023-04-13T16:44:08.758Z,30.50
2023-04-13T16:46:41.990Z,30.40
2023-04-13T16:49:13.763Z,30.40
2023-04-13T16:51:45.737Z,30.40
2023-04-13T16:54:21.114Z,30.40
2023-04-13T16:56:52.310Z,30.40
2023-04-13T16:59:27.255Z,30.40
2023-04-13T17:01:57.294Z,30.40
2023-04-13T17:04:27.125Z,30.40
2023-04-13T17:07:03.534Z,30.50
2023-04-13T17:09:33.168Z,30.50
2023-04-13T17:12:02.765Z,30.50
2023-04-13T17:14:33.585Z,30.40
2023-04-13T17:17:03.238Z,30.50
2023-04-13T17:19:33.159Z,30.50
2023-04-13T17:22:02.892Z,30.40
2023-04-13T17:24:34.094Z,30.50
2023-04-13T17:27:03.673Z,30.50
2023-04-13T17:29:35.076Z,30.50
2023-04-13T17:32:04.881Z,30.40
2023-04-13T17:34:34.983Z,30.40
2023-04-13T17:37:06.634Z,30.40
2023-04-13T17:39:37.656Z,30.30
2023-04-13T17:42:08.037Z,30.30
2023-04-13T17:44:37.699Z,30.30
2023-04-13T17:47:07.836Z,30.30
2023-04-13T17:49:37.951Z,30.30
2023-04-13T17:52:07.761Z,30.30
2023-04-13T17:54:37.999Z,30.40
2023-04-13T17:57:08.991Z,30.40
2023-04-13T17:59:38.730Z,30.40
2023-04-13T18:02:08.525Z,30.40
2023-04-13T18:04:38.330Z,30.40
2023-04-13T18:07:08.349Z,30.30
2023-04-13T18:09:38.041Z,30.30
2023-04-13T18:12:07.785Z,30.30
2023-04-13T18:14:37.561Z,30.20
2023-04-13T18:17:07.270Z,30.20
2023-04-13T18:19:36.972Z,30.10
2023-04-13T18:22:06.609Z,30.00
2023-04-13T18:24:36.226Z,29.90
2023-04-13T18:27:05.915Z,29.90
2023-04-13T18:29:35.665Z,29.80
2023-04-13T18:32:05.417Z,29.80
2023-04-13T18:34:36.258Z,29.80
2023-04-13T18:37:06.069Z,29.70
2023-04-13T18:39:35.789Z,29.60
2023-04-13T18:42:05.879Z,29.60
2023-04-13T18:44:35.893Z,29.60
2023-04-13T18:47:05.630Z,29.50
2023-04-13T18:49:35.267Z,29.50
2023-04-13T18:52:05.242Z,29.50
2023-04-13T18:54:35.953Z,29.50
2023-04-13T18:57:05.587Z,29.50
2023-04-13T18:59:35.245Z,29.50
2023-04-13T19:02:04.940Z,29.50
2023-04-13T19:04:36.433Z,29.50
2023-04-13T19:07:10.329Z,29.50
2023-04-13T19:09:40.705Z,29.50
2023-04-13T19:12:10.666Z,29.40
2023-04-13T19:14:40.213Z,29.40
2023-04-13T19:17:09.867Z,29.50
2023-04-13T19:19:39.458Z,29.50
2023-04-13T19:22:09.116Z,29.40
2023-04-13T19:24:39.168Z,29.40
2023-04-13T19:27:08.749Z,29.40
2023-04-13T19:29:38.572Z,29.30
2023-04-13T19:32:14.057Z,29.30
2023-04-13T19:34:43.762Z,29.30
2023-04-13T19:37:13.848Z,29.20
2023-04-13T19:39:43.487Z,29.20
2023-04-13T19:42:13.075Z,29.10
2023-04-13T19:44:42.734Z,29.20
2023-04-13T19:47:12.532Z,29.10
2023-04-13T19:49:42.247Z,29.20
2023-04-13T19:52:17.826Z,29.10
2023-04-13T19:54:48.243Z,29.10
2023-04-13T19:57:18.153Z,29.10
2023-04-13T19:59:47.852Z,29.10
2023-04-13T20:02:17.740Z,29.10
2023-04-13T20:04:51.551Z,29.10
2023-04-13T20:07:21.302Z,29.10
2023-04-13T20:09:50.861Z,29.00
2023-04-13T20:12:20.495Z,29.00
2023-04-13T20:14:51.103Z,29.00
2023-04-13T20:17:20.724Z,29.00
2023-04-13T20:19:51.583Z,29.00
2023-04-13T20:22:23.332Z,29.00
2023-04-13T20:24:52.878Z,29.00
2023-04-13T20:27:25.260Z,29.10
2023-04-13T20:29:54.909Z,29.00
2023-04-13T20:32:24.546Z,29.10
2023-04-13T20:34:55.800Z,29.10
2023-04-13T20:37:25.498Z,29.10
2023-04-13T20:39:55.080Z,29.00
2023-04-13T20:42:25.211Z,29.10
2023-04-13T20:45:01.751Z,29.00
2023-04-13T20:47:37.221Z,29.00
2023-04-13T20:50:07.203Z,29.00
2023-04-13T20:52:36.848Z,29.00
2023-04-13T20:55:06.624Z,29.00
2023-04-13T20:57:36.265Z,29.00
2023-04-13T21:00:10.722Z,28.90
2023-04-13T21:02:41.558Z,29.00
2023-04-13T21:05:12.096Z,29.00
2023-04-13T21:07:43.592Z,29.00
2023-04-13T21:10:13.825Z,29.00
2023-04-13T21:12:43.467Z,29.00
2023-04-13T21:15:14.131Z,29.00
2023-04-13T21:17:43.784Z,29.00
2023-04-13T21:20:14.294Z,29.00
2023-04-13T21:22:43.860Z,29.00
2023-04-13T21:25:13.404Z,29.00
2023-04-13T21:27:42.942Z,28.90
2023-04-13T21:30:13.023Z,29.00
2023-04-13T21:32:42.661Z,28.90
2023-04-13T21:35:15.138Z,28.90
2023-04-13T21:37:45.053Z,28.90
2023-04-13T21:40:14.841Z,28.90
2023-04-13T21:42:44.499Z,28.90
2023-04-13T21:45:14.189Z,28.80
2023-04-13T21:47:43.943Z,28.90
2023-04-13T21:50:13.656Z,28.90
2023-04-13T21:52:43.398Z,28.80
2023-04-13T21:55:19.260Z,28.80
2023-04-13T21:57:49.868Z,28.80
2023-04-13T22:00:19.713Z,28.80
2023-04-13T22:02:50.868Z,28.80
2023-04-13T22:05:20.571Z,28.70
2023-04-13T22:07:50.356Z,28.70
2023-04-13T22:10:19.996Z,28.60
2023-04-13T22:12:49.673Z,28.50
2023-04-13T22:15:19.239Z,28.40
2023-04-13T22:17:49.992Z,28.30
2023-04-13T22:20:19.789Z,28.30
2023-04-13T22:22:49.387Z,28.20
2023-04-13T22:25:19.105Z,28.20
2023-04-13T22:27:48.699Z,28.20
2023-04-13T22:30:18.707Z,28.20
2023-04-13T22:32:48.486Z,28.20
2023-04-13T22:35:18.436Z,28.10
2023-04-13T22:37:48.144Z,28.10
2023-04-13T22:40:18.030Z,28.10
2023-04-13T22:42:48.029Z,28.00
2023-04-13T22:45:17.916Z,28.10
2023-04-13T22:47:47.810Z,28.10
2023-04-13T22:50:17.540Z,28.10
2023-04-13T22:52:47.314Z,28.10
2023-04-13T22:55:19.615Z,28.10
2023-04-13T22:57:49.713Z,28.10
2023-04-13T23:00:22.295Z,28.10
2023-04-13T23:02:54.384Z,28.10
2023-04-13T23:05:24.222Z,28.10
2023-04-13T23:07:53.936Z,28.10
2023-04-13T23:10:23.786Z,28.10
2023-04-13T23:12:54.052Z,28.10
2023-04-13T23:15:23.634Z,28.10
2023-04-13T23:17:57.994Z,28.10
2023-04-13T23:20:30.100Z,28.10
2023-04-13T23:22:59.855Z,28.00
2023-04-13T23:25:29.502Z,28.00
2023-04-13T23:27:59.152Z,28.00
2023-04-13T23:30:28.850Z,28.00
2023-04-13T23:32:58.511Z,28.00
2023-04-13T23:35:28.229Z,28.10
2023-04-13T23:37:57.796Z,28.10
2023-04-13T23:40:27.520Z,28.10
2023-04-13T23:42:57.178Z,28.20
2023-04-13T23:45:26.803Z,28.10
2023-04-13T23:47:56.515Z,28.10
2023-04-13T23:50:26.140Z,28.20
2023-04-13T23:52:56.258Z,28.10
2023-04-13T23:55:25.972Z,28.10
2023-04-13T23:57:55.622Z,28.10
